Time;durP1;ratioP1;P1;durP2;ratioP2;P2;SDS_P1;SDS_P2;PMS_P1;PMS_P2;Temp;Humidity;BMP_temperature;BMP_pressure;BME280_temperature;BME280_humidity;BME280_pressure;Samples;Min_cycle;Max_cycle;Signal;HPM_P1;HPM_P2
2021/12/18 00:00:41;;;;;;;27.60;12.53;;;;;;;3.80;100.00;100537.12;1774823;80;21078;-66
2021/12/18 00:03:09;;;;;;;29.72;12.73;;;;;;;3.82;100.00;100532.86;1773692;80;21540;-66
2021/12/18 00:05:38;;;;;;;33.28;14.10;;;;;;;3.77;100.00;100538.44;1783901;79;21082;-65
2021/12/18 00:08:05;;;;;;;31.80;13.50;;;;;;;3.72;100.00;100535.97;1777383;79;20993;-65
2021/12/18 00:10:32;;;;;;;27.65;12.60;;;;;;;3.71;100.00;100544.48;1785939;79;21084;-66
2021/12/18 00:13:01;;;;;;;23.05;11.35;;;;;;;3.73;100.00;100541.89;1782213;80;21530;-65
2021/12/18 00:15:29;;;;;;;20.62;10.18;;;;;;;3.76;100.00;100538.05;1768020;80;21035;-66
2021/12/18 00:17:57;;;;;;;18.83;9.90;;;;;;;3.77;100.00;100544.80;1767700;80;21027;-66
2021/12/18 00:20:26;;;;;;;21.55;9.15;;;;;;;3.70;100.00;100537.70;1742592;81;21016;-66
2021/12/18 00:22:53;;;;;;;16.77;8.20;;;;;;;3.70;100.00;100540.25;1737558;82;21495;-66
2021/12/18 00:25:20;;;;;;;15.05;7.65;;;;;;;3.72;100.00;100534.70;1740988;81;21024;-66
2021/12/18 00:27:47;;;;;;;15.40;8.00;;;;;;;3.72;100.00;100538.52;1741197;81;21044;-66
2021/12/18 00:30:14;;;;;;;18.05;8.65;;;;;;;3.72;100.00;100541.06;1740863;81;22574;-66
2021/12/18 00:32:41;;;;;;;16.40;8.05;;;;;;;3.69;100.00;100536.03;1748427;82;21004;-65
2021/12/18 00:35:09;;;;;;;16.05;7.95;;;;;;;3.72;100.00;100537.24;1737820;82;21050;-66
2021/12/18 00:37:36;;;;;;;15.00;8.08;;;;;;;3.68;100.00;100540.70;1746538;81;21024;-66
2021/12/18 00:40:10;;;;;;;15.20;8.55;;;;;;;3.70;100.00;100542.79;1733032;82;21011;-66
2021/12/18 00:42:42;;;;;;;17.40;8.65;;;;;;;3.69;100.00;100536.45;1739427;82;21510;-66
2021/12/18 00:45:14;;;;;;;20.62;10.00;;;;;;;3.66;100.00;100534.80;1752175;81;21032;-66
2021/12/18 00:47:45;;;;;;;17.60;8.75;;;;;;;3.64;100.00;100534.42;1808820;78;21484;-66
2021/12/18 00:50:26;;;;;;;18.12;9.48;;;;;;;3.56;100.00;100535.80;1800233;78;21149;-66
2021/12/18 00:52:54;;;;;;;17.02;8.78;;;;;;;3.54;100.00;100535.81;1777630;79;21099;-66
2021/12/18 00:55:21;;;;;;;21.77;9.05;;;;;;;3.50;100.00;100535.89;1781032;79;21488;-66
2021/12/18 00:57:51;;;;;;;17.20;8.90;;;;;;;3.51;100.00;100528.23;1789384;79;21062;-66
2021/12/18 01:00:24;;;;;;;20.45;9.85;;;;;;;3.52;100.00;100537.98;1779438;79;21010;-66
2021/12/18 01:02:57;;;;;;;17.57;9.35;;;;;;;3.49;100.00;100543.09;1773451;80;20964;-66
2021/12/18 01:05:25;;;;;;;15.95;8.78;;;;;;;3.49;100.00;100538.00;1785570;80;21039;-66
2021/12/18 01:07:56;;;;;;;19.10;10.03;;;;;;;3.45;100.00;100541.05;1771903;81;21059;-67
2021/12/18 01:13:14;;;;;;;17.52;9.38;;;;;;;3.34;100.00;100551.36;1777591;79;21059;-66
2021/12/18 01:15:46;;;;;;;28.87;12.73;;;;;;;3.37;100.00;100549.22;1779509;79;20968;-66
2021/12/18 01:23:38;;;;;;;24.90;12.58;;;;;;;3.32;100.00;100541.63;1766598;80;21527;-66
2021/12/18 01:26:06;;;;;;;23.92;12.60;;;;;;;3.30;100.00;100539.54;1725443;81;21051;-66
2021/12/18 01:28:34;;;;;;;20.43;11.38;;;;;;;3.27;100.00;100549.77;1733611;81;21052;-66
2021/12/18 01:31:03;;;;;;;27.65;14.43;;;;;;;3.32;100.00;100536.55;1774678;80;21031;-66
2021/12/18 01:33:32;;;;;;;24.95;14.23;;;;;;;3.33;100.00;100538.68;1782662;79;21019;-66
2021/12/18 01:36:01;;;;;;;29.32;15.70;;;;;;;3.31;100.00;100550.14;1776074;79;21083;-66
2021/12/18 01:38:30;;;;;;;33.78;17.48;;;;;;;3.33;100.00;100556.48;1793951;78;21045;-66
2021/12/18 01:40:59;;;;;;;37.38;18.85;;;;;;;3.27;100.00;100552.31;1775574;78;21004;-66
2021/12/18 01:54:27;;;;;;;44.58;20.92;;;;;;;3.30;100.00;100557.34;1756897;80;21098;-66
2021/12/18 01:56:54;;;;;;;44.63;22.25;;;;;;;3.23;100.00;100557.48;1771319;80;21528;-67
2021/12/18 01:59:37;;;;;;;44.03;21.65;;;;;;;3.24;100.00;100563.79;1753146;80;21053;-66
2021/12/18 02:02:06;;;;;;;44.35;22.35;;;;;;;3.28;100.00;100564.16;1719737;82;21086;-66
2021/12/18 02:04:33;;;;;;;46.35;21.75;;;;;;;3.24;100.00;100564.23;1735287;81;21035;-66
2021/12/18 02:07:01;;;;;;;52.60;24.63;;;;;;;3.23;100.00;100565.94;1733733;81;21075;-66
2021/12/18 02:09:46;;;;;;;82.10;38.20;;;;;;;3.23;100.00;100567.66;1723658;82;21090;-66
2021/12/18 02:11:59;;;;;;;69.58;31.25;;;;;;;3.20;100.00;100577.41;1739669;81;21480;-67
2021/12/18 02:19:57;;;;;;;57.98;28.60;;;;;;;3.11;100.00;100564.83;1794145;79;21014;-67
2021/12/18 02:22:21;;;;;;;53.78;27.10;;;;;;;3.13;100.00;100570.73;1786680;78;21067;-67
2021/12/18 02:24:48;;;;;;;42.75;22.98;;;;;;;3.05;100.00;100581.00;1781218;79;21079;-67
2021/12/18 02:27:15;;;;;;;45.85;22.42;;;;;;;3.06;100.00;100581.83;1779343;79;21054;-67
2021/12/18 02:29:42;;;;;;;41.60;21.40;;;;;;;3.04;100.00;100579.73;1774559;80;21047;-67
2021/12/18 02:32:12;;;;;;;39.50;20.57;;;;;;;3.05;100.00;100580.16;1785996;79;20952;-67
2021/12/18 02:34:41;;;;;;;32.08;15.83;;;;;;;3.03;100.00;100589.07;1781031;79;21503;-67
2021/12/18 02:37:10;;;;;;;31.30;16.25;;;;;;;3.00;100.00;100587.83;1778036;79;21043;-67
2021/12/18 02:39:55;;;;;;;30.10;15.25;;;;;;;3.00;100.00;100582.33;1777089;79;21024;-68
2021/12/18 02:42:12;;;;;;;32.38;15.50;;;;;;;3.05;100.00;100583.98;1780001;80;21042;-68
2021/12/18 02:44:41;;;;;;;30.90;15.38;;;;;;;3.00;100.00;100590.37;1750899;80;21063;-67
2021/12/18 02:47:10;;;;;;;28.27;14.30;;;;;;;3.01;100.00;100589.52;1756088;80;21089;-68
2021/12/18 02:49:43;;;;;;;33.45;16.85;;;;;;;2.96;100.00;100598.48;1761060;80;21035;-68
2021/12/18 02:52:10;;;;;;;27.83;13.57;;;;;;;2.93;100.00;100603.59;1735288;81;21069;-67
2021/12/18 02:54:42;;;;;;;37.93;17.20;;;;;;;2.89;100.00;100597.29;1777128;79;21046;-67
2021/12/18 02:57:11;;;;;;;41.40;20.25;;;;;;;2.89;100.00;100599.83;1755447;80;21074;-67
2021/12/18 02:59:48;;;;;;;44.42;19.87;;;;;;;2.84;100.00;100604.11;1762063;80;20983;-68
2021/12/18 03:02:18;;;;;;;38.85;19.05;;;;;;;2.79;100.00;100605.00;1727183;82;21016;-68
2021/12/18 03:04:51;;;;;;;41.73;19.85;;;;;;;2.84;100.00;100605.38;1783066;79;21509;-68
2021/12/18 03:07:17;;;;;;;38.42;19.12;;;;;;;2.81;100.00;100610.08;1785737;78;21030;-67
2021/12/18 03:23:33;;;;;;;36.40;17.37;;;;;;;2.81;100.00;100625.33;1732347;81;21034;-67
2021/12/18 03:25:59;;;;;;;35.13;17.75;;;;;;;2.78;100.00;100624.94;1783256;79;21070;-67
2021/12/18 03:28:29;;;;;;;37.05;18.48;;;;;;;2.76;100.00;100629.20;1787875;78;21087;-67
2021/12/18 03:30:56;;;;;;;31.12;15.53;;;;;;;2.80;100.00;100628.75;1779444;79;21023;-67
2021/12/18 03:33:25;;;;;;;32.20;15.48;;;;;;;2.80;100.00;100628.31;1759764;81;21098;-68
2021/12/18 03:35:53;;;;;;;29.20;14.98;;;;;;;2.84;100.00;100638.43;1783655;80;21063;-68
2021/12/18 03:38:20;;;;;;;25.70;14.15;;;;;;;2.86;100.00;100639.26;1747878;82;21035;-67
2021/12/18 03:40:48;;;;;;;31.93;14.25;;;;;;;2.86;100.00;100645.20;1743312;81;21055;-67
2021/12/18 03:43:14;;;;;;;27.98;12.75;;;;;;;2.94;100.00;100647.64;1782250;79;21043;-67
2021/12/18 03:45:42;;;;;;;37.38;16.25;;;;;;;2.93;100.00;100657.42;1793394;79;21026;-68
2021/12/18 03:48:09;;;;;;;29.72;14.35;;;;;;;2.91;100.00;100651.08;1785230;79;21063;-68
2021/12/18 03:50:39;;;;;;;31.37;14.03;;;;;;;2.86;100.00;100657.92;1754812;80;21030;-68
2021/12/18 03:53:06;;;;;;;27.95;13.05;;;;;;;2.86;100.00;100649.02;1734222;81;21630;-67
2021/12/18 03:55:34;;;;;;;23.20;10.68;;;;;;;2.85;100.00;100656.22;1728754;82;21051;-67
2021/12/18 03:58:01;;;;;;;23.60;10.40;;;;;;;2.77;100.00;100663.91;1742682;81;21012;-67
2021/12/18 04:00:28;;;;;;;22.82;10.75;;;;;;;2.75;100.00;100660.98;1725558;82;21543;-67
2021/12/18 04:02:55;;;;;;;23.80;11.10;;;;;;;2.74;100.00;100658.88;1723216;82;21079;-68
2021/12/18 04:05:22;;;;;;;22.52;11.22;;;;;;;2.70;100.00;100660.20;1732804;81;21129;-67
2021/12/18 04:07:51;;;;;;;24.37;11.63;;;;;;;2.75;100.00;100660.55;1721470;82;21090;-68
2021/12/18 04:10:20;;;;;;;23.67;12.60;;;;;;;2.72;100.00;100658.05;1732789;82;21078;-68
2021/12/18 04:12:50;;;;;;;24.35;12.53;;;;;;;2.67;100.00;100657.23;1712044;81;21551;-67
2021/12/18 04:15:16;;;;;;;22.50;11.73;;;;;;;2.70;100.00;100666.12;1725899;81;21043;-68
2021/12/18 04:17:43;;;;;;;26.65;11.88;;;;;;;2.63;100.00;100668.72;1763371;80;21038;-68
2021/12/18 04:20:12;;;;;;;26.30;12.80;;;;;;;2.68;100.00;100672.91;1752759;81;21044;-67
2021/12/18 04:22:39;;;;;;;27.15;13.03;;;;;;;2.65;100.00;100680.55;1744029;82;21127;-68
2021/12/18 04:25:07;;;;;;;27.62;12.98;;;;;;;2.66;100.00;100688.61;1741510;81;21572;-67
2021/12/18 04:27:35;;;;;;;21.00;11.70;;;;;;;2.67;100.00;100684.36;1734360;81;21496;-67
2021/12/18 04:30:02;;;;;;;25.70;11.20;;;;;;;2.68;100.00;100693.25;1717205;82;21072;-67
2021/12/18 04:32:29;;;;;;;20.62;11.80;;;;;;;2.64;100.00;100691.59;1738222;81;21035;-68
2021/12/18 04:34:56;;;;;;;20.12;9.98;;;;;;;2.68;100.00;100691.14;1722585;82;21086;-68
2021/12/18 04:37:23;;;;;;;20.15;9.75;;;;;;;2.70;100.00;100691.53;1727032;82;21015;-68
2021/12/18 04:39:52;;;;;;;19.52;9.90;;;;;;;2.73;100.00;100705.47;1723800;82;21114;-67
2021/12/18 04:42:20;;;;;;;24.27;11.85;;;;;;;2.76;100.00;100709.71;1736349;82;21143;-68
2021/12/18 04:44:47;;;;;;;22.87;10.98;;;;;;;2.75;100.00;100709.28;1800594;78;21082;-67
2021/12/18 04:47:16;;;;;;;26.33;11.73;;;;;;;2.73;100.00;100709.28;1784353;79;21038;-67
2021/12/18 04:49:43;;;;;;;25.57;12.10;;;;;;;2.76;100.00;100714.80;1784205;79;21014;-67
2021/12/18 04:52:10;;;;;;;26.73;12.03;;;;;;;2.74;100.00;100726.23;1786577;78;21046;-67
2021/12/18 04:54:37;;;;;;;30.70;13.70;;;;;;;2.80;100.00;100725.35;1781026;80;21063;-67
2021/12/18 04:57:03;;;;;;;30.72;13.20;;;;;;;2.81;100.00;100729.13;1771866;80;21583;-67
2021/12/18 04:59:31;;;;;;;30.52;14.38;;;;;;;2.79;100.00;100726.19;1767739;80;21153;-68
2021/12/18 05:01:58;;;;;;;30.55;13.43;;;;;;;2.83;100.00;100725.31;1749120;80;21008;-68
2021/12/18 05:04:25;;;;;;;32.40;13.83;;;;;;;2.81;100.00;100732.94;1732424;81;21059;-68
2021/12/18 05:06:53;;;;;;;33.28;14.18;;;;;;;2.77;100.00;100732.55;1761916;80;21040;-67
2021/12/18 05:09:19;;;;;;;36.13;15.78;;;;;;;2.81;100.00;100739.73;1754239;80;21039;-67
2021/12/18 05:11:49;;;;;;;36.85;15.35;;;;;;;2.85;100.00;100739.28;1797096;78;21144;-67
2021/12/18 05:14:16;;;;;;;33.58;13.60;;;;;;;2.88;100.00;100739.24;1788799;79;21022;-68
2021/12/18 05:16:45;;;;;;;27.93;12.00;;;;;;;2.88;100.00;100741.78;1782854;79;21078;-67
2021/12/18 05:19:14;;;;;;;30.23;11.97;;;;;;;2.90;100.00;100748.56;1774037;80;21012;-68
2021/12/18 05:21:41;;;;;;;27.80;11.93;;;;;;;2.87;100.00;100749.85;1752702;80;21660;-67
2021/12/18 05:24:08;;;;;;;27.80;11.85;;;;;;;2.87;100.00;100754.09;1761838;80;21134;-68
2021/12/18 05:26:35;;;;;;;28.20;11.75;;;;;;;2.88;100.00;100762.99;1752704;80;21012;-68
2021/12/18 05:29:02;;;;;;;28.55;11.75;;;;;;;2.82;100.00;100769.40;1750861;80;21043;-67
2021/12/18 05:31:30;;;;;;;28.85;10.95;;;;;;;2.85;100.00;100768.09;1751970;80;21055;-69
2021/12/18 05:34:00;;;;;;;25.65;11.33;;;;;;;2.86;100.00;100770.20;1742965;81;21060;-68
2021/12/18 05:36:40;;;;;;;28.07;11.63;;;;;;;2.83;100.00;100777.42;1749581;81;21083;-67
2021/12/18 05:39:10;;;;;;;25.37;10.80;;;;;;;2.88;100.00;100774.84;1753212;81;21035;-68
2021/12/18 05:41:38;;;;;;;30.48;12.13;;;;;;;2.89;100.00;100782.90;1742293;81;21040;-68
2021/12/18 05:44:06;;;;;;;28.42;12.23;;;;;;;2.87;100.00;100780.80;1781800;79;20984;-68
2021/12/18 05:46:34;;;;;;;27.50;11.90;;;;;;;2.82;100.00;100783.38;1793188;78;21058;-67
2021/12/18 05:49:03;;;;;;;24.98;11.00;;;;;;;2.85;100.00;100792.67;1778323;80;21091;-68
2021/12/18 05:51:32;;;;;;;24.70;10.67;;;;;;;2.81;100.00;100795.66;1742591;81;21059;-67
2021/12/18 05:54:00;;;;;;;24.12;11.53;;;;;;;2.85;100.00;100798.59;1722445;82;21082;-67
2021/12/18 05:56:26;;;;;;;25.57;11.15;;;;;;;2.87;100.00;100798.16;1730539;81;21104;-67
2021/12/18 05:58:53;;;;;;;20.17;9.80;;;;;;;2.87;100.00;100800.70;1722170;82;21031;-67
2021/12/18 06:01:20;;;;;;;22.45;9.83;;;;;;;2.91;100.00;100802.80;1722225;82;21043;-68
2021/12/18 06:03:47;;;;;;;22.30;10.50;;;;;;;2.96;100.00;100802.32;1736282;81;21547;-67
2021/12/18 06:06:15;;;;;;;18.57;9.65;;;;;;;2.99;100.00;100805.69;1734164;81;21509;-67
2021/12/18 06:08:42;;;;;;;16.05;9.00;;;;;;;2.99;100.00;100814.59;1727521;81;21032;-67
2021/12/18 06:11:12;;;;;;;21.17;10.38;;;;;;;2.96;100.00;100820.98;1727444;81;21085;-67
2021/12/18 06:13:41;;;;;;;19.98;9.93;;;;;;;3.04;100.00;100817.09;1726919;82;21068;-67
2021/12/18 06:16:08;;;;;;;18.50;9.73;;;;;;;3.10;100.00;100816.20;1750021;82;21067;-67
2021/12/18 06:18:40;;;;;;;18.80;9.03;;;;;;;3.11;100.00;100823.83;1723432;82;21044;-68
2021/12/18 06:21:06;;;;;;;18.32;9.30;;;;;;;3.07;100.00;100825.98;1763183;80;21078;-67
2021/12/18 06:23:33;;;;;;;20.75;9.23;;;;;;;3.15;100.00;100824.66;1727658;82;21051;-68
2021/12/18 06:26:00;;;;;;;24.30;10.78;;;;;;;3.08;100.00;100831.50;1723047;82;21015;-68
2021/12/18 06:28:27;;;;;;;31.30;12.70;;;;;;;3.16;100.00;100836.50;1731862;82;21051;-67
2021/12/18 06:30:56;;;;;;;31.35;12.58;;;;;;;3.11;100.00;100834.44;1721721;81;21043;-67
2021/12/18 06:33:23;;;;;;;26.60;12.10;;;;;;;3.14;100.00;100833.98;1726159;81;21570;-68
2021/12/18 06:35:50;;;;;;;30.52;13.53;;;;;;;3.17;100.00;100839.03;1746665;81;21098;-67
2021/12/18 06:38:17;;;;;;;32.10;14.75;;;;;;;3.13;100.00;100846.71;1727688;81;21122;-67
2021/12/18 06:40:44;;;;;;;33.23;16.12;;;;;;;3.11;100.00;100840.36;1719858;81;21035;-67
2021/12/18 06:43:11;;;;;;;37.70;17.52;;;;;;;3.11;100.00;100842.06;1741931;81;21567;-67
2021/12/18 06:45:38;;;;;;;27.37;14.00;;;;;;;3.06;100.00;100842.52;1720148;82;21103;-67
2021/12/18 06:48:05;;;;;;;28.47;13.58;;;;;;;3.10;100.00;100846.31;1747461;81;21135;-67
2021/12/18 06:50:35;;;;;;;26.02;13.15;;;;;;;3.10;100.00;100846.72;1728842;81;21519;-67
2021/12/18 06:53:02;;;;;;;26.70;13.30;;;;;;;3.09;100.00;100846.32;1728876;81;21322;-67
2021/12/18 06:55:30;;;;;;;27.87;13.20;;;;;;;3.10;100.00;100851.81;1736492;81;21511;-68
2021/12/18 06:57:57;;;;;;;28.20;13.18;;;;;;;3.14;100.00;100854.34;1736272;81;21039;-67
2021/12/18 07:00:25;;;;;;;29.00;13.58;;;;;;;3.13;100.00;100856.45;1750042;81;21086;-68
2021/12/18 07:02:53;;;;;;;29.27;13.22;;;;;;;3.16;100.00;100864.08;1761389;80;21071;-68
2021/12/18 07:05:20;;;;;;;27.25;13.80;;;;;;;3.14;100.00;100863.24;1784768;79;21047;-68
2021/12/18 07:07:47;;;;;;;25.52;12.47;;;;;;;3.15;100.00;100867.89;1775609;80;21105;-67
2021/12/18 07:10:16;;;;;;;28.17;13.10;;;;;;;3.05;100.00;100862.46;1779049;80;21080;-67
2021/12/18 07:12:43;;;;;;;31.15;13.78;;;;;;;3.08;100.00;100870.92;1761932;80;21015;-68
2021/12/18 07:15:12;;;;;;;28.65;13.55;;;;;;;3.12;100.00;100873.86;1751107;80;21076;-67
2021/12/18 07:17:39;;;;;;;28.10;14.05;;;;;;;3.13;100.00;100867.06;1747859;81;21543;-67
2021/12/18 07:20:09;;;;;;;32.48;13.85;;;;;;;3.16;100.00;100877.20;1741757;81;21554;-68
2021/12/18 07:22:36;;;;;;;28.62;13.13;;;;;;;3.14;100.00;100879.78;1733328;82;21638;-67
2021/12/18 07:25:04;;;;;;;28.92;13.70;;;;;;;3.15;100.00;100870.00;1781619;79;20984;-67
2021/12/18 07:27:32;;;;;;;28.70;14.33;;;;;;;3.20;100.00;100869.55;1781919;79;21007;-68
2021/12/18 07:29:59;;;;;;;30.48;14.00;;;;;;;3.25;100.00;100879.69;1781191;79;21528;-68
2021/12/18 07:32:27;;;;;;;31.12;14.90;;;;;;;3.20;100.00;100878.86;1779834;79;20973;-68
2021/12/18 07:34:54;;;;;;;35.00;15.83;;;;;;;3.15;100.00;100881.89;1748211;79;21007;-68
2021/12/18 07:37:23;;;;;;;34.85;18.50;;;;;;;3.10;100.00;100894.64;1789201;78;21028;-68
2021/12/18 07:39:52;;;;;;;36.42;17.10;;;;;;;3.12;100.00;100878.08;1790304;78;21498;-68
2021/12/18 07:42:20;;;;;;;35.00;17.20;;;;;;;3.14;100.00;100886.54;1765264;79;20964;-68
2021/12/18 07:44:47;;;;;;;30.55;15.72;;;;;;;3.14;100.00;100888.68;1771068;79;21063;-68
2021/12/18 07:47:14;;;;;;;32.33;15.25;;;;;;;3.07;100.00;100902.72;1775710;79;21046;-67
2021/12/18 07:49:41;;;;;;;28.30;13.50;;;;;;;3.14;100.00;100896.72;1774462;79;21471;-67
2021/12/18 07:52:10;;;;;;;25.85;12.80;;;;;;;3.20;100.00;100889.04;1786075;80;21021;-68
2021/12/18 07:54:38;;;;;;;28.50;13.35;;;;;;;3.22;100.00;100892.41;1781298;79;21027;-68
2021/12/18 07:57:05;;;;;;;26.90;13.83;;;;;;;3.16;100.00;100897.55;1762981;79;21067;-67
2021/12/18 07:59:32;;;;;;;26.93;13.25;;;;;;;3.20;100.00;100898.81;1756179;80;21547;-66
2021/12/18 08:02:00;;;;;;;27.55;14.28;;;;;;;3.20;100.00;100891.58;1760951;80;21048;-67
2021/12/18 08:04:28;;;;;;;28.45;13.05;;;;;;;3.28;100.00;100892.36;1754092;81;21048;-67
2021/12/18 08:06:55;;;;;;;27.22;12.20;;;;;;;3.27;100.00;100903.85;1756131;81;21047;-68
2021/12/18 08:09:23;;;;;;;27.98;11.25;;;;;;;3.29;100.00;100899.16;1737827;81;20977;-67
2021/12/18 08:11:50;;;;;;;23.30;11.88;;;;;;;3.28;100.00;100894.08;1766083;79;21054;-67
2021/12/18 08:14:16;;;;;;;28.90;13.95;;;;;;;3.35;100.00;100895.29;1777468;80;21036;-67
2021/12/18 08:16:44;;;;;;;29.63;13.35;;;;;;;3.40;100.00;100893.97;1774599;79;21126;-68
2021/12/18 08:19:13;;;;;;;37.13;15.63;;;;;;;3.33;100.00;100900.82;1777420;79;21512;-68
2021/12/18 08:21:40;;;;;;;27.30;12.93;;;;;;;3.31;100.00;100894.06;1796062;78;21055;-67
2021/12/18 08:24:06;;;;;;;21.80;10.95;;;;;;;3.25;100.00;100892.41;1797692;78;21076;-67
2021/12/18 08:26:33;;;;;;;26.75;12.40;;;;;;;3.31;100.00;100897.45;1800889;78;21062;-69
2021/12/18 08:29:01;;;;;;;25.60;12.20;;;;;;;3.31;100.00;100901.27;1794985;78;21063;-67
2021/12/18 08:31:28;;;;;;;23.27;11.28;;;;;;;3.36;100.00;100893.14;1790737;78;20973;-67
2021/12/18 08:33:55;;;;;;;24.52;11.15;;;;;;;3.39;100.00;100898.66;1789833;79;21632;-67
2021/12/18 08:36:22;;;;;;;38.25;16.85;;;;;;;3.39;100.00;100893.14;1787131;79;21027;-67
2021/12/18 08:38:49;;;;;;;55.65;20.72;;;;;;;3.35;100.00;100901.66;1785787;78;21042;-67
2021/12/18 08:41:16;;;;;;;24.32;11.53;;;;;;;3.42;100.00;100898.63;1780840;78;21022;-68
2021/12/18 08:43:43;;;;;;;36.23;14.70;;;;;;;3.41;100.00;100896.52;1796844;78;21511;-67
2021/12/18 08:46:10;;;;;;;47.80;20.50;;;;;;;3.53;100.00;100907.45;1794021;78;21063;-67
2021/12/18 08:48:37;;;;;;;33.55;15.03;;;;;;;3.59;100.00;100892.97;1798989;78;21058;-67
2021/12/18 08:51:04;;;;;;;25.65;12.05;;;;;;;3.61;100.00;100903.14;1772191;80;21126;-67
2021/12/18 08:53:31;;;;;;;25.10;11.85;;;;;;;3.66;100.00;100896.73;1782923;79;21539;-68
2021/12/18 08:55:59;;;;;;;17.90;9.53;;;;;;;3.59;100.00;100895.52;1793937;78;20996;-67
2021/12/18 08:58:27;;;;;;;20.70;10.45;;;;;;;3.75;100.00;100900.03;1800243;78;21075;-67
2021/12/18 09:00:54;;;;;;;18.20;9.98;;;;;;;3.76;100.00;100897.89;1767934;79;20992;-67
2021/12/18 09:03:21;;;;;;;19.98;9.73;;;;;;;3.72;100.00;100903.03;1769423;78;20959;-68
2021/12/18 09:05:48;;;;;;;16.82;8.95;;;;;;;3.76;100.00;100901.71;1731127;80;21181;-67
2021/12/18 09:08:16;;;;;;;18.82;9.38;;;;;;;3.79;100.00;100906.79;1777303;78;21050;-68
2021/12/18 09:10:44;;;;;;;18.85;9.25;;;;;;;3.75;100.00;100906.41;1768254;80;21052;-67
2021/12/18 09:13:12;;;;;;;18.85;9.05;;;;;;;3.73;100.00;100913.21;1770519;79;20948;-67
2021/12/18 09:15:40;;;;;;;25.55;11.03;;;;;;;3.67;100.00;100907.31;1763055;79;21123;-68
2021/12/18 09:18:07;;;;;;;33.98;14.87;;;;;;;3.59;100.00;100916.31;1772574;79;21082;-67
2021/12/18 09:20:34;;;;;;;50.43;18.85;;;;;;;3.67;100.00;100912.41;1790653;79;20977;-67
2021/12/18 09:23:01;;;;;;;56.02;20.65;;;;;;;3.62;100.00;100916.27;1797756;79;21024;-67
2021/12/18 09:25:29;;;;;;;55.78;21.25;;;;;;;3.62;100.00;100913.73;1777423;79;21109;-67
2021/12/18 09:27:56;;;;;;;39.58;16.60;;;;;;;3.66;100.00;100911.56;1780162;79;21015;-67
2021/12/18 09:30:24;;;;;;;31.25;14.30;;;;;;;3.72;100.00;100916.60;1770861;78;21539;-67
2021/12/18 09:32:51;;;;;;;21.00;11.08;;;;;;;3.79;100.00;100920.80;1753595;80;21011;-67
2021/12/18 09:35:21;;;;;;;22.42;10.78;;;;;;;3.71;100.00;100917.88;1765031;79;21041;-66
2021/12/18 09:37:48;;;;;;;23.80;10.48;;;;;;;3.73;100.00;100918.71;1757713;80;21017;-67
2021/12/18 09:40:17;;;;;;;21.40;11.10;;;;;;;3.66;100.00;100917.94;1747602;80;21087;-67
2021/12/18 09:42:44;;;;;;;20.08;9.60;;;;;;;3.76;100.00;100918.70;1750504;80;21081;-67
2021/12/18 09:45:14;;;;;;;17.32;10.08;;;;;;;3.77;100.00;100916.55;1748467;80;21028;-66
2021/12/18 09:47:41;;;;;;;22.27;9.75;;;;;;;3.82;100.00;100922.46;1747903;81;21068;-67
2021/12/18 09:50:12;;;;;;;24.60;11.30;;;;;;;3.74;100.00;100922.96;1720962;82;21550;-67
2021/12/18 09:52:39;;;;;;;19.07;9.38;;;;;;;3.81;100.00;100916.94;1756388;81;21067;-67
2021/12/18 09:55:08;;;;;;;26.97;11.33;;;;;;;3.80;100.00;100919.92;1750189;80;21054;-67
2021/12/18 09:57:37;;;;;;;37.88;15.00;;;;;;;3.85;100.00;100917.32;1756061;81;21029;-67
2021/12/18 10:00:08;;;;;;;28.70;12.80;;;;;;;3.92;100.00;100912.59;1751366;80;21514;-67
2021/12/18 10:02:38;;;;;;;25.52;10.20;;;;;;;3.96;100.00;100912.14;1756671;81;21001;-68
2021/12/18 10:05:09;;;;;;;26.82;11.22;;;;;;;4.01;100.00;100909.97;1759628;81;21016;-67
2021/12/18 10:07:36;;;;;;;31.95;12.35;;;;;;;4.04;100.00;100908.25;1769515;80;21036;-67
2021/12/18 10:10:07;;;;;;;29.82;11.80;;;;;;;4.04;100.00;100909.52;1756094;81;21040;-67
2021/12/18 10:12:35;;;;;;;30.15;13.88;;;;;;;4.01;100.00;100908.69;1738954;80;21012;-67
2021/12/18 10:15:15;;;;;;;23.05;9.40;;;;;;;4.08;100.00;100904.80;1767724;81;21529;-67
2021/12/18 10:17:42;;;;;;;30.90;12.55;;;;;;;4.00;100.00;100904.87;1756494;80;21019;-67
2021/12/18 10:20:21;;;;;;;29.75;11.55;;;;;;;4.05;100.00;100906.93;1751535;80;21058;-67
2021/12/18 10:22:54;;;;;;;23.73;9.60;;;;;;;4.08;100.00;100904.80;1755066;81;21072;-67
2021/12/18 10:25:33;;;;;;;20.57;9.20;;;;;;;4.04;100.00;100907.80;1763595;80;21574;-67
2021/12/18 10:28:10;;;;;;;23.52;10.03;;;;;;;4.04;100.00;100909.52;1751052;80;21058;-66
2021/12/18 10:30:33;;;;;;;29.77;11.80;;;;;;;4.03;100.00;100910.36;1758182;81;21469;-68
2021/12/18 10:33:11;;;;;;;27.80;10.82;;;;;;;4.08;100.00;100908.19;1751416;80;21059;-67
2021/12/18 10:35:56;;;;;;;25.25;10.78;;;;;;;4.13;100.00;100905.14;1755819;80;20989;-67
2021/12/18 10:38:50;;;;;;;18.35;8.30;;;;;;;4.01;100.00;100912.52;1744235;81;21077;-68
2021/12/18 10:41:30;;;;;;;18.65;9.05;;;;;;;3.91;100.00;100912.60;1751209;81;21556;-67
2021/12/18 10:44:12;;;;;;;18.50;8.88;;;;;;;3.80;100.00;100912.28;1758996;81;21528;-68
2021/12/18 10:46:44;;;;;;;15.15;7.65;;;;;;;3.81;100.00;100919.48;1765424;80;21538;-67
2021/12/18 10:49:14;;;;;;;10.43;5.30;;;;;;;3.81;100.00;100917.80;1748887;80;21089;-66
2021/12/18 10:51:45;;;;;;;11.12;5.53;;;;;;;3.73;100.00;100908.53;1742141;81;21545;-67
2021/12/18 10:54:22;;;;;;;12.10;5.67;;;;;;;3.67;100.00;100913.67;1748300;80;21081;-67
2021/12/18 10:56:53;;;;;;;12.20;6.28;;;;;;;3.70;100.00;100913.66;1738893;80;21537;-67
2021/12/18 10:59:31;;;;;;;13.62;6.47;;;;;;;3.72;100.00;100914.05;1743482;80;21027;-66
2021/12/18 11:02:05;;;;;;;15.63;7.25;;;;;;;3.77;100.00;100915.27;1741452;81;21078;-67
2021/12/18 11:04:38;;;;;;;18.80;7.85;;;;;;;3.85;100.00;100907.57;1733677;81;21058;-66
2021/12/18 11:07:27;;;;;;;16.32;7.83;;;;;;;3.92;100.00;100910.48;1744079;81;21048;-67
2021/12/18 11:15:07;;;;;;;18.55;8.25;;;;;;;3.76;100.00;100918.26;1696614;81;21045;-67
2021/12/18 11:17:37;;;;;;;18.45;8.65;;;;;;;3.74;100.00;100909.80;1773482;81;21068;-67
2021/12/18 11:20:05;;;;;;;18.17;8.65;;;;;;;3.82;100.00;100916.09;1740800;81;21395;-66
2021/12/18 11:22:32;;;;;;;15.95;7.53;;;;;;;3.87;100.00;100918.14;1753488;81;21168;-66
2021/12/18 11:25:06;;;;;;;14.00;6.72;;;;;;;3.85;100.00;100919.86;1729998;81;21628;-66
2021/12/18 11:27:35;;;;;;;12.00;6.97;;;;;;;3.81;100.00;100924.17;1739350;80;21115;-66
2021/12/18 11:30:11;;;;;;;13.43;6.08;;;;;;;3.81;100.00;100917.80;1750665;80;21125;-66
2021/12/18 11:32:45;;;;;;;11.75;6.65;;;;;;;3.87;100.00;100926.23;1763829;79;21072;-66
2021/12/18 11:35:17;;;;;;;10.35;6.20;;;;;;;3.96;100.00;100924.87;1739969;80;20987;-66
2021/12/18 11:37:58;;;;;;;11.45;6.17;;;;;;;3.91;100.00;100928.72;1743739;81;21510;-67
2021/12/18 11:40:32;;;;;;;14.23;6.85;;;;;;;3.94;100.00;100914.70;1737575;81;21105;-67
2021/12/18 11:42:58;;;;;;;11.78;6.30;;;;;;;3.88;100.00;100912.65;1739998;80;21096;-66
2021/12/18 11:45:36;;;;;;;13.05;7.12;;;;;;;3.87;100.00;100916.88;1752451;81;21027;-66
2021/12/18 11:48:05;;;;;;;12.03;6.72;;;;;;;3.85;100.00;100912.66;1740098;81;21058;-66
2021/12/18 11:50:38;;;;;;;12.82;7.22;;;;;;;3.89;100.00;100918.14;1754341;81;21073;-66
2021/12/18 11:53:16;;;;;;;12.37;7.03;;;;;;;3.91;100.00;100909.61;1744770;81;21100;-66
2021/12/18 11:55:54;;;;;;;13.75;8.05;;;;;;;3.92;100.00;100913.03;1757303;81;21573;-67
2021/12/18 11:58:34;;;;;;;14.68;8.40;;;;;;;3.93;100.00;100912.16;1753790;81;21104;-66
2021/12/18 12:01:18;;;;;;;15.00;7.85;;;;;;;4.02;100.00;100905.70;1736399;81;21058;-66
2021/12/18 12:03:56;;;;;;;13.75;8.05;;;;;;;4.00;100.00;100911.25;1738065;81;21633;-67